Time;durP1;ratioP1;P1;durP2;ratioP2;P2;SDS_P1;SDS_P2;PMS_P1;PMS_P2;Temp;Humidity;BMP_temperature;BMP_pressure;BME280_temperature;BME280_humidity;BME280_pressure;Samples;Min_cycle;Max_cycle;Signal;HPM_P1;HPM_P2
2023/11/05 00:04:44;;;;;;;;;;;;;;;17.42;52.47;95589.31;10324732;28;950;-69
2023/11/05 00:09:40;;;;;;;;;;;;;;;17.41;52.46;95587.69;10324669;28;859;-69
2023/11/05 00:14:36;;;;;;;;;;;;;;;17.39;52.52;95597.53;10325106;28;762;-69
2023/11/05 00:19:32;;;;;;;;;;;;;;;17.34;52.84;95587.50;10332793;28;1890;-69
2023/11/05 00:24:28;;;;;;;;;;;;;;;17.32;52.56;95586.88;10332108;28;806;-69
2023/11/05 00:29:24;;;;;;;;;;;;;;;17.29;52.66;95574.84;10332193;28;1426;-69
2023/11/05 00:34:20;;;;;;;;;;;;;;;17.29;52.61;95572.22;10332864;28;902;-69
2023/11/05 00:39:15;;;;;;;;;;;;;;;17.26;52.71;95567.25;10330893;28;1971;-69
2023/11/05 00:44:12;;;;;;;;;;;;;;;17.25;52.92;95556.94;10331395;28;968;-69
2023/11/05 00:49:09;;;;;;;;;;;;;;;17.24;52.91;95545.59;10331764;28;873;-69
2023/11/05 00:54:05;;;;;;;;;;;;;;;17.21;52.96;95543.28;10331866;28;860;-68
2023/11/05 00:59:02;;;;;;;;;;;;;;;17.20;52.92;95530.28;10331488;28;877;-69
2023/11/05 01:03:58;;;;;;;;;;;;;;;17.18;52.94;95521.72;10330827;28;1898;-68
2023/11/05 01:08:54;;;;;;;;;;;;;;;17.19;52.90;95516.31;10331810;28;928;-69
2023/11/05 01:13:50;;;;;;;;;;;;;;;17.15;53.11;95514.16;10330849;28;928;-69
2023/11/05 01:18:46;;;;;;;;;;;;;;;17.14;53.19;95504.66;10330730;28;865;-69
2023/11/05 01:23:41;;;;;;;;;;;;;;;17.11;53.10;95505.78;10329873;28;1894;-69
2023/11/05 01:28:38;;;;;;;;;;;;;;;17.12;53.17;95509.25;10329903;28;1355;-69
2023/11/05 01:33:34;;;;;;;;;;;;;;;17.09;53.00;95502.50;10330119;28;1226;-69
2023/11/05 01:38:30;;;;;;;;;;;;;;;17.09;53.20;95505.94;10329318;28;1192;-69
2023/11/05 01:43:26;;;;;;;;;;;;;;;17.06;53.19;95493.13;10329141;28;1918;-69
2023/11/05 01:48:22;;;;;;;;;;;;;;;17.04;53.15;95494.28;10328359;28;920;-68
2023/11/05 01:53:18;;;;;;;;;;;;;;;17.03;53.13;95495.28;10328956;28;829;-69
2023/11/05 01:58:13;;;;;;;;;;;;;;;17.03;53.25;95480.31;10328588;28;907;-69
2023/11/05 02:03:09;;;;;;;;;;;;;;;17.02;53.38;95483.91;10328425;28;1894;-69
2023/11/05 02:08:05;;;;;;;;;;;;;;;17.02;53.43;95477.84;10328125;28;921;-69
2023/11/05 02:13:02;;;;;;;;;;;;;;;17.00;53.22;95471.91;10327339;28;826;-69
2023/11/05 02:17:58;;;;;;;;;;;;;;;17.00;53.35;95464.88;10328499;28;871;-69
2023/11/05 02:22:54;;;;;;;;;;;;;;;16.98;53.31;95451.06;10327058;28;1965;-69
2023/11/05 02:27:50;;;;;;;;;;;;;;;16.96;53.62;95441.69;10327875;28;883;-69
2023/11/05 02:32:46;;;;;;;;;;;;;;;16.96;53.35;95437.25;10326645;28;1332;-69
2023/11/05 02:37:42;;;;;;;;;;;;;;;16.95;53.45;95430.34;10326280;28;1048;-69
2023/11/05 02:42:38;;;;;;;;;;;;;;;16.94;53.65;95422.63;10326123;28;1910;-69
2023/11/05 02:47:33;;;;;;;;;;;;;;;16.95;53.58;95413.72;10326786;28;909;-69
2023/11/05 02:52:29;;;;;;;;;;;;;;;16.93;53.45;95413.09;10327053;28;798;-69
2023/11/05 02:57:25;;;;;;;;;;;;;;;16.91;53.54;95396.66;10325955;28;956;-69
2023/11/05 03:02:21;;;;;;;;;;;;;;;16.91;53.60;95396.66;10326215;28;1965;-69
2023/11/05 03:07:17;;;;;;;;;;;;;;;16.90;53.68;95385.31;10325998;28;851;-69
2023/11/05 03:12:13;;;;;;;;;;;;;;;16.89;53.68;95369.69;10326024;28;846;-69
2023/11/05 03:17:09;;;;;;;;;;;;;;;16.88;53.76;95373.31;10326376;28;818;-69
2023/11/05 03:22:06;;;;;;;;;;;;;;;16.86;53.56;95370.84;10326151;28;1894;-69
2023/11/05 03:27:02;;;;;;;;;;;;;;;16.85;53.61;95379.75;10325578;28;886;-68
2023/11/05 03:31:57;;;;;;;;;;;;;;;16.84;53.75;95380.72;10326238;28;1263;-69
2023/11/05 03:36:53;;;;;;;;;;;;;;;16.84;53.77;95378.88;10325319;28;786;-69
2023/11/05 03:41:49;;;;;;;;;;;;;;;16.83;53.75;95368.56;10325815;28;1895;-69
2023/11/05 03:46:45;;;;;;;;;;;;;;;16.81;53.53;95358.19;10325178;28;869;-69
2023/11/05 03:51:43;;;;;;;;;;;;;;;16.81;53.68;95365.28;10330792;28;855;-69
2023/11/05 03:56:40;;;;;;;;;;;;;;;16.78;53.81;95358.53;10333416;28;973;-69
2023/11/05 04:01:36;;;;;;;;;;;;;;;16.78;53.69;95355.09;10333597;28;1961;-69
2023/11/05 04:06:32;;;;;;;;;;;;;;;16.77;53.76;95359.53;10333566;28;852;-69
2023/11/05 04:11:27;;;;;;;;;;;;;;;16.77;53.63;95358.69;10332709;28;1019;-69
2023/11/05 04:16:23;;;;;;;;;;;;;;;16.75;53.93;95356.22;10331848;28;1068;-69
2023/11/05 04:21:19;;;;;;;;;;;;;;;16.75;53.86;95356.22;10332234;28;1893;-69
2023/11/05 04:26:15;;;;;;;;;;;;;;;16.74;53.78;95345.84;10332101;28;851;-69
2023/11/05 04:31:11;;;;;;;;;;;;;;;16.72;53.72;95359.19;10332297;28;1144;-69
2023/11/05 04:36:07;;;;;;;;;;;;;;;16.71;53.78;95346.19;10332307;28;825;-69
2023/11/05 04:41:03;;;;;;;;;;;;;;;16.71;53.92;95340.94;10332174;28;1972;-69
2023/11/05 04:45:59;;;;;;;;;;;;;;;16.69;53.80;95351.63;10331426;28;848;-69
2023/11/05 04:50:55;;;;;;;;;;;;;;;16.74;53.80;95344.06;10331130;28;993;-69
2023/11/05 04:55:51;;;;;;;;;;;;;;;16.85;53.40;95346.38;10330966;28;818;-69
2023/11/05 05:00:47;;;;;;;;;;;;;;;16.95;52.98;95340.94;10329400;28;1898;-69
2023/11/05 05:05:43;;;;;;;;;;;;;;;17.00;53.16;95353.56;10330595;28;924;-69
2023/11/05 05:10:39;;;;;;;;;;;;;;;17.10;52.85;95346.28;10330172;28;1185;-69
2023/11/05 05:15:35;;;;;;;;;;;;;;;17.21;52.75;95351.22;10330303;28;977;-69
2023/11/05 05:20:31;;;;;;;;;;;;;;;17.25;52.76;95355.13;10330059;28;1901;-69
2023/11/05 05:25:28;;;;;;;;;;;;;;;17.34;52.43;95357.72;10330508;28;948;-69
2023/11/05 05:30:23;;;;;;;;;;;;;;;17.36;52.46;95358.38;10329487;28;1438;-69
2023/11/05 05:35:20;;;;;;;;;;;;;;;17.38;52.46;95353.75;10329532;28;937;-69
2023/11/05 05:40:15;;;;;;;;;;;;;;;17.44;52.36;95356.50;10329218;28;1914;-69
2023/11/05 05:45:12;;;;;;;;;;;;;;;17.46;52.12;95359.81;10329144;28;1170;-69
2023/11/05 05:50:08;;;;;;;;;;;;;;;17.47;52.31;95363.25;10328899;28;933;-70
2023/11/05 05:55:04;;;;;;;;;;;;;;;17.51;52.35;95354.84;10329682;28;912;-69
2023/11/05 06:00:00;;;;;;;;;;;;;;;17.56;52.32;95362.25;10329982;28;1889;-69
2023/11/05 06:04:56;;;;;;;;;;;;;;;17.56;52.25;95372.78;10328942;28;794;-69
2023/11/05 06:09:52;;;;;;;;;;;;;;;17.58;52.45;95360.25;10328758;28;867;-69
2023/11/05 06:14:48;;;;;;;;;;;;;;;17.63;52.13;95372.88;10327424;28;779;-70
2023/11/05 06:19:44;;;;;;;;;;;;;;;17.64;52.27;95371.91;10327652;28;1902;-70
2023/11/05 06:24:41;;;;;;;;;;;;;;;17.64;52.37;95380.63;10326909;28;1187;-72
2023/11/05 06:29:37;;;;;;;;;;;;;;;17.66;52.60;95391.00;10327215;28;1132;-71
2023/11/05 06:34:33;;;;;;;;;;;;;;;17.67;52.39;95393.44;10327330;28;900;-71
2023/11/05 06:39:29;;;;;;;;;;;;;;;17.64;52.51;95404.31;10326967;28;1914;-71
2023/11/05 06:44:24;;;;;;;;;;;;;;;17.67;52.45;95409.25;10327385;28;791;-71
2023/11/05 06:49:20;;;;;;;;;;;;;;;17.70;52.42;95411.53;10325938;28;1044;-71
2023/11/05 06:54:16;;;;;;;;;;;;;;;17.69;52.66;95416.97;10326398;28;857;-71
2023/11/05 06:59:12;;;;;;;;;;;;;;;17.69;52.79;95419.63;10326525;28;909;-71
2023/11/05 07:04:08;;;;;;;;;;;;;;;17.77;53.38;95429.28;10326083;28;1893;-71
2023/11/05 07:09:06;;;;;;;;;;;;;;;17.77;54.49;95431.94;10325995;28;865;-71
2023/11/05 07:14:02;;;;;;;;;;;;;;;17.78;55.09;95438.81;10326462;28;758;-71
2023/11/05 07:18:58;;;;;;;;;;;;;;;17.80;54.84;95442.97;10325748;28;979;-71
2023/11/05 07:23:53;;;;;;;;;;;;;;;17.77;54.90;95438.00;10325198;28;1953;-71
2023/11/05 07:28:50;;;;;;;;;;;;;;;17.77;54.70;95458.25;10325295;28;989;-71
2023/11/05 07:33:46;;;;;;;;;;;;;;;17.71;54.62;95452.69;10325414;28;980;-71
2023/11/05 07:38:42;;;;;;;;;;;;;;;17.69;54.52;95454.66;10325356;28;974;-71
2023/11/05 07:43:39;;;;;;;;;;;;;;;17.64;54.73;95461.44;10325731;28;1969;-71
2023/11/05 07:48:35;;;;;;;;;;;;;;;17.62;54.60;95458.97;10325059;28;937;-71
2023/11/05 07:53:31;;;;;;;;;;;;;;;17.61;54.49;95474.94;10325045;28;766;-71
2023/11/05 07:58:27;;;;;;;;;;;;;;;17.62;54.37;95485.28;10324439;28;772;-71
2023/11/05 08:03:23;;;;;;;;;;;;;;;17.66;54.28;95483.97;10324648;28;1918;-71
2023/11/05 08:08:19;;;;;;;;;;;;;;;17.68;54.13;95484.63;10325336;28;855;-71
2023/11/05 08:13:15;;;;;;;;;;;;;;;17.68;54.09;95499.59;10325255;28;962;-73
2023/11/05 08:18:11;;;;;;;;;;;;;;;17.66;54.04;95512.13;10325131;28;944;-71
2023/11/05 08:23:08;;;;;;;;;;;;;;;17.70;53.83;95522.13;10325050;28;1898;-71
2023/11/05 08:28:03;;;;;;;;;;;;;;;17.72;53.99;95525.41;10324359;28;825;-71
2023/11/05 08:32:59;;;;;;;;;;;;;;;17.72;54.11;95535.13;10324348;28;1501;-71
2023/11/05 08:37:57;;;;;;;;;;;;;;;17.74;53.81;95536.63;10328181;28;785;-71
2023/11/05 08:42:53;;;;;;;;;;;;;;;17.76;53.90;95546.97;10332345;28;1914;-71
2023/11/05 08:47:49;;;;;;;;;;;;;;;17.76;53.92;95552.22;10331366;28;900;-71
2023/11/05 08:52:45;;;;;;;;;;;;;;;17.78;53.80;95562.59;10331349;28;853;-71
2023/11/05 08:57:41;;;;;;;;;;;;;;;17.82;53.54;95570.03;10331789;28;839;-71
2023/11/05 09:02:37;;;;;;;;;;;;;;;17.81;53.69;95588.63;10330788;28;1960;-71
2023/11/05 09:07:33;;;;;;;;;;;;;;;17.81;53.54;95599.16;10330091;28;933;-71
2023/11/05 09:12:29;;;;;;;;;;;;;;;17.82;53.67;95614.00;10331184;28;921;-70
2023/11/05 09:17:26;;;;;;;;;;;;;;;17.84;53.47;95620.75;10329646;28;961;-70
2023/11/05 09:22:22;;;;;;;;;;;;;;;17.83;53.45;95632.25;10330002;28;1898;-70
2023/11/05 09:27:18;;;;;;;;;;;;;;;17.85;53.45;95640.00;10330537;28;782;-71
2023/11/05 09:32:14;;;;;;;;;;;;;;;17.85;53.20;95647.91;10330037;28;1199;-70
2023/11/05 09:37:10;;;;;;;;;;;;;;;17.75;53.60;95659.38;10330241;28;853;-73
2023/11/05 09:42:06;;;;;;;;;;;;;;;17.78;53.36;95667.97;10327984;28;1964;-73
2023/11/05 09:47:02;;;;;;;;;;;;;;;17.84;53.09;95670.78;10328572;28;786;-71
2023/11/05 09:51:59;;;;;;;;;;;;;;;17.84;53.12;95680.47;10328606;28;906;-72
2023/11/05 09:56:55;;;;;;;;;;;;;;;17.82;53.21;95693.03;10328454;28;861;-72
2023/11/05 10:01:51;;;;;;;;;;;;;;;17.86;53.12;95697.75;10329005;28;1953;-71
2023/11/05 10:06:48;;;;;;;;;;;;;;;17.89;53.21;95701.88;10328048;28;834;-74
2023/11/05 10:11:43;;;;;;;;;;;;;;;17.91;52.88;95699.91;10328381;28;866;-75
2023/11/05 10:16:39;;;;;;;;;;;;;;;17.88;52.96;95708.16;10328282;28;897;-71
2023/11/05 10:21:35;;;;;;;;;;;;;;;17.90;53.16;95719.34;10327377;28;1898;-71
2023/11/05 10:26:31;;;;;;;;;;;;;;;17.90;53.09;95737.78;10327779;28;817;-71
2023/11/05 10:31:27;;;;;;;;;;;;;;;17.87;53.05;95730.22;10326975;28;1243;-71
2023/11/05 10:36:25;;;;;;;;;;;;;;;17.85;53.32;95737.47;10327558;28;859;-71
2023/11/05 10:41:21;;;;;;;;;;;;;;;17.88;52.97;95742.41;10326632;28;1914;-72
2023/11/05 10:46:17;;;;;;;;;;;;;;;17.89;52.94;95754.56;10326490;28;931;-71
2023/11/05 10:51:13;;;;;;;;;;;;;;;17.91;52.80;95765.78;10325649;28;924;-72
2023/11/05 10:56:08;;;;;;;;;;;;;;;17.92;52.79;95770.88;10325573;28;865;-71
2023/11/05 11:01:05;;;;;;;;;;;;;;;17.92;52.70;95786.69;10325355;28;1894;-71
2023/11/05 11:06:01;;;;;;;;;;;;;;;17.90;52.94;95788.66;10326451;28;762;-71
2023/11/05 11:10:57;;;;;;;;;;;;;;;17.94;52.88;95797.88;10325685;28;944;-71
2023/11/05 11:15:53;;;;;;;;;;;;;;;17.92;52.83;95805.13;10326224;28;764;-71
2023/11/05 11:20:49;;;;;;;;;;;;;;;17.93;52.75;95817.31;10325312;28;1952;-71
2023/11/05 11:25:44;;;;;;;;;;;;;;;17.93;53.04;95819.13;10325381;28;808;-71
2023/11/05 11:30:40;;;;;;;;;;;;;;;17.98;52.81;95827.38;10324464;28;1450;-70
2023/11/05 11:35:36;;;;;;;;;;;;;;;17.96;52.73;95845.97;10325789;28;882;-71
2023/11/05 11:40:32;;;;;;;;;;;;;;;17.94;52.75;95857.66;10325763;28;1979;-71
2023/11/05 11:45:28;;;;;;;;;;;;;;;17.95;52.82;95868.03;10324930;28;952;-71
2023/11/05 11:50:24;;;;;;;;;;;;;;;17.97;52.60;95862.59;10324904;28;818;-71
2023/11/05 11:55:21;;;;;;;;;;;;;;;17.99;52.64;95867.72;10324809;28;917;-71
2023/11/05 12:00:18;;;;;;;;;;;;;;;18.00;52.70;95866.72;10324814;28;1898;-71
2023/11/05 12:05:13;;;;;;;;;;;;;;;18.02;52.65;95880.56;10324477;28;1016;-70
2023/11/05 12:10:09;;;;;;;;;;;;;;;17.96;52.71;95900.47;10325962;28;778;-71
2023/11/05 12:15:05;;;;;;;;;;;;;;;17.93;52.62;95913.97;10332442;28;833;-70
2023/11/05 12:20:04;;;;;;;;;;;;;;;17.91;52.57;95932.56;10332096;28;1890;-71
2023/11/05 12:25:00;;;;;;;;;;;;;;;17.93;52.85;95941.13;10332742;28;914;-71
2023/11/05 12:29:56;;;;;;;;;;;;;;;17.93;52.68;95956.13;10331943;28;1246;-71
2023/11/05 12:34:52;;;;;;;;;;;;;;;17.93;52.92;95969.28;10331659;28;789;-71
2023/11/05 12:39:48;;;;;;;;;;;;;;;17.92;52.58;95986.91;10332057;28;1975;-71
2023/11/05 12:44:44;;;;;;;;;;;;;;;17.94;52.67;96002.56;10331275;28;916;-70
2023/11/05 12:49:40;;;;;;;;;;;;;;;17.92;52.69;96033.50;10331114;28;983;-70
2023/11/05 12:54:36;;;;;;;;;;;;;;;17.92;52.85;96060.69;10331672;28;864;-71
2023/11/05 12:59:32;;;;;;;;;;;;;;;17.96;52.85;96071.72;10330619;28;1952;-71
2023/11/05 13:04:28;;;;;;;;;;;;;;;17.96;52.73;96071.72;10330755;28;776;-71
2023/11/05 13:09:24;;;;;;;;;;;;;;;17.95;52.94;96089.34;10330456;28;913;-71
2023/11/05 13:14:23;;;;;;;;;;;;;;;17.99;52.76;96099.56;10331101;28;833;-71
2023/11/05 13:19:19;;;;;;;;;;;;;;;17.97;53.05;96120.78;10330028;28;897;-71
2023/11/05 13:24:15;;;;;;;;;;;;;;;17.97;52.90;96126.06;10329035;28;1893;-71
2023/11/05 13:29:11;;;;;;;;;;;;;;;17.96;52.88;96127.06;10329852;28;1525;-72
2023/11/05 13:34:07;;;;;;;;;;;;;;;17.98;52.86;96137.44;10330138;28;841;-71
2023/11/05 13:39:04;;;;;;;;;;;;;;;17.96;52.97;96156.03;10329380;28;842;-71
2023/11/05 13:44:04;;;;;;;;;;;;;;;17.95;52.91;96175.47;10328975;28;1898;-68
2023/11/05 13:49:00;;;;;;;;;;;;;;;17.96;53.02;96183.22;10329417;28;865;-71
2023/11/05 13:53:57;;;;;;;;;;;;;;;17.94;52.92;96200.97;10328852;28;854;-71
2023/11/05 13:58:53;;;;;;;;;;;;;;;17.97;52.66;96218.28;10328438;28;893;-71
2023/11/05 14:03:49;;;;;;;;;;;;;;;17.98;52.97;96219.97;10328353;28;1885;-71
2023/11/05 14:08:45;;;;;;;;;;;;;;;17.97;52.62;96234.09;10328390;28;845;-71
2023/11/05 14:13:41;;;;;;;;;;;;;;;17.98;52.65;96250.75;10328554;28;772;-71
2023/11/05 14:18:37;;;;;;;;;;;;;;;17.98;52.76;96262.13;10327658;28;882;-71
2023/11/05 14:23:33;;;;;;;;;;;;;;;18.01;52.64;96282.06;10326721;28;1969;-71
2023/11/05 14:28:29;;;;;;;;;;;;;;;17.99;52.59;96292.75;10327841;28;861;-70
2023/11/05 14:33:24;;;;;;;;;;;;;;;17.97;52.65;96305.25;10326885;28;1326;-71
2023/11/05 14:38:21;;;;;;;;;;;;;;;17.98;52.80;96309.56;10326844;28;981;-74
2023/11/05 14:43:17;;;;;;;;;;;;;;;17.99;52.62;96331.44;10326468;28;1905;-71
2023/11/05 14:48:14;;;;;;;;;;;;;;;17.96;52.83;96338.66;10324154;28;1033;-71
2023/11/05 14:53:10;;;;;;;;;;;;;;;17.96;52.86;96357.13;10325141;28;957;-71
2023/11/05 14:58:06;;;;;;;;;;;;;;;18.00;52.72;96370.84;10325506;28;881;-70
2023/11/05 15:03:03;;;;;;;;;;;;;;;18.02;52.55;96397.03;10325152;28;1890;-71
2023/11/05 15:07:59;;;;;;;;;;;;;;;18.00;52.60;96397.19;10326093;28;790;-70
2023/11/05 15:12:55;;;;;;;;;;;;;;;18.02;52.71;96413.66;10325169;28;953;-70
2023/11/05 15:17:51;;;;;;;;;;;;;;;18.03;52.54;96428.50;10325529;28;849;-71
2023/11/05 15:22:47;;;;;;;;;;;;;;;17.99;52.75;96442.94;10326169;28;1966;-71
2023/11/05 15:27:43;;;;;;;;;;;;;;;17.99;52.86;96448.22;10326445;28;810;-71
2023/11/05 15:32:41;;;;;;;;;;;;;;;18.00;52.73;96468.34;10325359;28;1239;-71
2023/11/05 15:37:37;;;;;;;;;;;;;;;17.96;52.90;96473.06;10325983;28;868;-71
2023/11/05 15:42:36;;;;;;;;;;;;;;;17.98;52.81;96493.19;10325209;28;1910;-71
2023/11/05 15:47:33;;;;;;;;;;;;;;;17.99;52.61;96519.38;10334651;28;917;-71
2023/11/05 15:52:28;;;;;;;;;;;;;;;18.01;52.73;96535.88;10338835;28;865;-71
2023/11/05 15:57:24;;;;;;;;;;;;;;;17.98;52.49;96551.16;10338671;28;880;-71
2023/11/05 16:02:20;;;;;;;;;;;;;;;17.95;52.70;96568.09;10339105;28;1957;-70
2023/11/05 16:07:20;;;;;;;;;;;;;;;18.00;52.73;96584.28;10338478;28;856;-70
2023/11/05 16:12:16;;;;;;;;;;;;;;;17.98;52.50;96602.03;10338509;28;934;-70
2023/11/05 16:17:12;;;;;;;;;;;;;;;17.98;52.61;96615.22;10338304;28;805;-70
2023/11/05 16:22:07;;;;;;;;;;;;;;;18.00;52.75;96630.88;10338144;28;1943;-71
2023/11/05 16:27:03;;;;;;;;;;;;;;;18.06;52.26;96641.69;10338055;28;830;-71
2023/11/05 16:32:00;;;;;;;;;;;;;;;18.00;52.64;96668.63;10338237;28;1137;-71
2023/11/05 16:36:56;;;;;;;;;;;;;;;18.03;52.43;96676.25;10337896;28;869;-71
2023/11/05 16:41:52;;;;;;;;;;;;;;;18.03;52.72;96692.06;10337683;28;1910;-71
2023/11/05 16:46:48;;;;;;;;;;;;;;;18.05;52.68;96691.88;10337687;28;1181;-71
2023/11/05 16:51:44;;;;;;;;;;;;;;;18.04;52.64;96711.31;10337552;28;870;-71
2023/11/05 16:56:45;;;;;;;;;;;;;;;18.09;52.43;96725.72;10335028;28;854;-70
2023/11/05 17:01:41;;;;;;;;;;;;;;;18.07;52.45;96743.50;10331715;28;1894;-70
2023/11/05 17:06:37;;;;;;;;;;;;;;;18.06;52.58;96747.09;10330990;28;811;-71
2023/11/05 17:11:41;;;;;;;;;;;;;;;18.04;52.39;96764.88;10330621;28;976;-70
2023/11/05 17:16:39;;;;;;;;;;;;;;;18.07;52.47;96780.38;10331474;28;880;-70
2023/11/05 17:21:35;;;;;;;;;;;;;;;18.08;52.58;96799.69;10330085;28;1897;-70
2023/11/05 17:26:31;;;;;;;;;;;;;;;18.07;52.49;96814.66;10330085;28;944;-71
2023/11/05 17:31:26;;;;;;;;;;;;;;;18.09;52.27;96820.63;10329269;28;1202;-70
2023/11/05 17:36:23;;;;;;;;;;;;;;;18.08;52.23;96833.97;10330458;28;873;-71
2023/11/05 17:41:19;;;;;;;;;;;;;;;18.08;52.17;96847.97;10330139;28;1969;-71
2023/11/05 17:46:14;;;;;;;;;;;;;;;18.08;52.29;96860.31;10329330;28;868;-71
2023/11/05 17:51:10;;;;;;;;;;;;;;;18.07;51.75;96877.91;10329764;28;849;-71
2023/11/05 17:56:06;;;;;;;;;;;;;;;18.07;52.06;96888.44;10328939;28;785;-71
2023/11/05 18:01:02;;;;;;;;;;;;;;;18.05;52.33;96893.06;10328962;28;1949;-71
2023/11/05 18:05:58;;;;;;;;;;;;;;;18.09;52.08;96914.69;10329369;28;931;-70
2023/11/05 18:10:54;;;;;;;;;;;;;;;18.12;51.97;96923.16;10328787;28;837;-71
2023/11/05 18:15:50;;;;;;;;;;;;;;;18.06;52.07;96942.16;10328703;28;884;-71
2023/11/05 18:20:47;;;;;;;;;;;;;;;18.08;51.96;96945.50;10328776;28;1890;-71
2023/11/05 18:25:43;;;;;;;;;;;;;;;18.11;51.95;96966.31;10327616;28;913;-70
2023/11/05 18:30:39;;;;;;;;;;;;;;;18.11;51.89;96978.66;10328129;28;1428;-70
2023/11/05 18:35:35;;;;;;;;;;;;;;;18.10;52.04;96984.88;10327902;28;905;-71
2023/11/05 18:40:31;;;;;;;;;;;;;;;18.11;51.82;96994.47;10327254;28;1909;-70
2023/11/05 18:45:28;;;;;;;;;;;;;;;18.11;51.66;97007.66;10327552;28;814;-71
2023/11/05 18:50:24;;;;;;;;;;;;;;;18.08;51.64;97010.56;10327308;28;878;-71
2023/11/05 18:55:19;;;;;;;;;;;;;;;18.11;51.77;97034.84;10326585;28;860;-71
2023/11/05 19:00:15;;;;;;;;;;;;;;;18.09;51.42;97042.03;10326892;28;1918;-71
2023/11/05 19:05:11;;;;;;;;;;;;;;;18.11;51.75;97044.56;10326879;28;787;-71
2023/11/05 19:10:07;;;;;;;;;;;;;;;18.10;51.53;97054.28;10326990;28;886;-71
2023/11/05 19:15:04;;;;;;;;;;;;;;;18.14;51.29;97074.09;10326608;28;1686;-71
2023/11/05 19:20:00;;;;;;;;;;;;;;;18.12;51.31;97086.59;10325311;28;1967;-71
2023/11/05 19:24:56;;;;;;;;;;;;;;;18.11;51.41;97098.09;10326546;28;798;-71
2023/11/05 19:29:53;;;;;;;;;;;;;;;18.14;51.26;97118.09;10325558;28;1076;-71
2023/11/05 19:34:49;;;;;;;;;;;;;;;18.15;51.16;97114.47;10325522;28;881;-71
2023/11/05 19:39:45;;;;;;;;;;;;;;;18.12;51.45;97131.41;10325466;28;1900;-71
2023/11/05 19:44:41;;;;;;;;;;;;;;;18.13;51.53;97137.50;10325318;28;1030;-71
2023/11/05 19:49:37;;;;;;;;;;;;;;;18.15;51.14;97149.56;10325295;28;936;-71
2023/11/05 19:54:33;;;;;;;;;;;;;;;18.15;51.26;97167.19;10325148;28;779;-71
2023/11/05 19:59:29;;;;;;;;;;;;;;;18.11;50.80;97179.00;10325066;28;893;-71
2023/11/05 20:04:26;;;;;;;;;;;;;;;18.10;51.11;97188.72;10324928;28;1877;-71
2023/11/05 20:09:21;;;;;;;;;;;;;;;18.13;51.19;97206.91;10324938;28;893;-71
2023/11/05 20:14:18;;;;;;;;;;;;;;;18.12;51.14;97217.56;10324776;28;797;-71
2023/11/05 20:19:15;;;;;;;;;;;;;;;18.11;50.92;97234.34;10325193;28;830;-71
2023/11/05 20:24:11;;;;;;;;;;;;;;;18.12;51.03;97244.75;10324438;28;1945;-70
2023/11/05 20:29:06;;;;;;;;;;;;;;;18.17;51.09;97261.00;10324864;28;1408;-71
2023/11/05 20:34:03;;;;;;;;;;;;;;;18.15;50.89;97270.84;10328151;28;897;-70
2023/11/05 20:39:01;;;;;;;;;;;;;;;18.13;50.95;97285.97;10332010;28;785;-70
2023/11/05 20:43:57;;;;;;;;;;;;;;;18.09;51.27;97296.91;10332200;28;1963;-71
2023/11/05 20:48:53;;;;;;;;;;;;;;;18.06;51.17;97295.38;10331804;28;767;-71
2023/11/05 20:53:48;;;;;;;;;;;;;;;18.05;51.04;97309.53;10331923;28;878;-71
2023/11/05 20:58:44;;;;;;;;;;;;;;;18.04;51.11;97318.38;10331711;28;884;-71
2023/11/05 21:03:40;;;;;;;;;;;;;;;18.04;50.12;97331.56;10330922;28;1927;-70
2023/11/05 21:08:36;;;;;;;;;;;;;;;18.00;50.43;97326.66;10331186;28;1692;-71
2023/11/05 21:13:32;;;;;;;;;;;;;;;17.98;50.29;97334.69;10330628;28;960;-71
2023/11/05 21:18:28;;;;;;;;;;;;;;;18.00;50.31;97338.06;10329886;28;760;-71
2023/11/05 21:23:24;;;;;;;;;;;;;;;17.98;50.29;97350.53;10330216;28;1898;-70
2023/11/05 21:28:20;;;;;;;;;;;;;;;17.95;50.18;97356.03;10330023;28;1041;-71
2023/11/05 21:33:16;;;;;;;;;;;;;;;17.91;50.31;97362.50;10330397;28;1139;-70
2023/11/05 21:38:13;;;;;;;;;;;;;;;17.89;50.36;97380.25;10329125;28;1119;-71
2023/11/05 21:43:08;;;;;;;;;;;;;;;17.86;51.01;97385.78;10328978;28;1913;-71
2023/11/05 21:48:05;;;;;;;;;;;;;;;17.89;50.51;97393.41;10329345;28;788;-71
2023/11/05 21:53:01;;;;;;;;;;;;;;;17.88;50.64;97397.88;10329671;28;846;-71
2023/11/05 21:57:57;;;;;;;;;;;;;;;17.83;50.66;97421.09;10328919;28;786;-70
2023/11/05 22:02:53;;;;;;;;;;;;;;;17.84;50.24;97432.47;10329231;28;1968;-71
2023/11/05 22:07:49;;;;;;;;;;;;;;;17.82;50.64;97422.09;10329191;28;854;-71
2023/11/05 22:12:45;;;;;;;;;;;;;;;17.74;50.74;97432.38;10327636;28;1622;-71
2023/11/05 22:17:41;;;;;;;;;;;;;;;17.73;50.77;97447.31;10328033;28;980;-71
2023/11/05 22:22:37;;;;;;;;;;;;;;;17.67;51.12;97452.25;10327828;28;1902;-70
2023/11/05 22:27:33;;;;;;;;;;;;;;;17.66;50.94;97450.59;10327922;28;901;-71
2023/11/05 22:32:29;;;;;;;;;;;;;;;17.60;51.46;97453.69;10327649;28;1735;-71
2023/11/05 22:37:24;;;;;;;;;;;;;;;17.62;51.19;97476.31;10327301;28;905;-70
2023/11/05 22:42:20;;;;;;;;;;;;;;;17.51;51.47;97473.69;10326977;28;1962;-70
2023/11/05 22:47:16;;;;;;;;;;;;;;;17.45;51.56;97496.09;10326913;28;954;-71
2023/11/05 22:52:12;;;;;;;;;;;;;;;17.41;51.88;97494.63;10327036;28;783;-71
2023/11/05 22:57:09;;;;;;;;;;;;;;;17.39;51.76;97499.19;10326362;28;897;-71
2023/11/05 23:02:05;;;;;;;;;;;;;;;17.35;51.87;97516.19;10326554;28;1894;-71
2023/11/05 23:07:00;;;;;;;;;;;;;;;17.34;51.86;97513.66;10327093;28;830;-71
2023/11/05 23:11:56;;;;;;;;;;;;;;;17.28;52.09;97515.81;10326032;28;869;-71
2023/11/05 23:16:53;;;;;;;;;;;;;;;17.27;52.12;97543.09;10325980;28;799;-71
2023/11/05 23:21:51;;;;;;;;;;;;;;;17.20;52.05;97539.25;10326383;28;1949;-70
2023/11/05 23:26:47;;;;;;;;;;;;;;;17.18;52.06;97533.25;10326562;28;913;-70
2023/11/05 23:31:43;;;;;;;;;;;;;;;17.15;52.21;97541.38;10325735;28;1337;-71
2023/11/05 23:36:39;;;;;;;;;;;;;;;17.18;52.52;97561.38;10326172;28;966;-71
2023/11/05 23:41:34;;;;;;;;;;;;;;;17.11;52.44;97561.03;10325435;28;1969;-71
2023/11/05 23:46:30;;;;;;;;;;;;;;;17.09;52.44;97555.03;10325384;28;765;-70
2023/11/05 23:51:26;;;;;;;;;;;;;;;17.05;52.43;97561.47;10325273;28;830;-70
2023/11/05 23:56:22;;;;;;;;;;;;;;;17.07;52.55;97556.94;10325947;28;961;-70
